Terminal Aerodrome Forecast
Issued by NWS Mt. Holly, NJ

Home | Current Version | Previous Version | Text Only | Print | Product List | Glossary On
Versions: 1 2 3 4 5 6 7 8 9 10 11 12 13 14 15 16 17 18 19 20 21 22 23 24 25 26 27 28 29 30 31 32 33 34 35 36 37 38 39 40 41 42 43 44 45 46 47 48 49 50
202
FTUS41 KPHI 190556
TAFABE
TAF
KABE 190556Z 1906/2006 27003KT P6SM OVC019
     FM190630 28003KT P6SM OVC025
      TEMPO 1908/1910 SCT025 OVC035
     FM191000 29003KT P6SM BKN035
     FM191300 31007KT P6SM FEW035 SCT250
     FM191900 28005KT P6SM SCT025
     FM192300 VRB02KT P6SM SCT250=

USA.gov is the U.S. government's official web portal to all federal, state and local government web resources and services.